YCTY weather

Cape Otway Airport
Victoria, Australia

Public forecast

Using degrees Celsius for public forecast. Weather courtesy of forecast.io.

METAR (pilot weather report)

Closest report is Avalon Airport, 66.6 nm (123.4 km) NE. Retrieved 2019/04/20 16:30 UTC (0 seconds ago):

YMAV 201630Z AUTO 01010KT 9999 // NCD 20/07 Q1016 RF00.0/000.0

TAF (pilot weather forecast)

Closest forecast is Avalon Airport, 66.6 nm (123.4 km) NE. Retrieved 2019/04/20 12:00 UTC (4 hours ago):

TAF YMAV 201113Z 2012/2112 01006KT CAVOK FM202200 01015G25KT CAVOK FM210500 34010KT 9999 -SHRA SCT050 BKN080 FM211000 24012KT 9999 -SHRA SCT015 BKN025